sensor_id;sensor_type;location;lat;lon;timestamp;temperature;humidity
76787;DHT22;65739;51.482;5.702;2023-05-13T00:00:14;13.00;99.90
76787;DHT22;65739;51.482;5.702;2023-05-13T00:02:40;13.00;99.90
76787;DHT22;65739;51.482;5.702;2023-05-13T00:05:09;13.00;99.90
76787;DHT22;65739;51.482;5.702;2023-05-13T00:07:34;13.00;99.90
76787;DHT22;65739;51.482;5.702;2023-05-13T00:10:00;13.10;99.90
76787;DHT22;65739;51.482;5.702;2023-05-13T00:12:27;12.90;99.90
76787;DHT22;65739;51.482;5.702;2023-05-13T00:14:55;13.00;99.90
76787;DHT22;65739;51.482;5.702;2023-05-13T00:17:20;12.90;99.90
76787;DHT22;65739;51.482;5.702;2023-05-13T00:19:46;12.90;99.90
76787;DHT22;65739;51.482;5.702;2023-05-13T00:22:11;12.90;99.90
76787;DHT22;65739;51.482;5.702;2023-05-13T00:24:37;13.00;99.90
76787;DHT22;65739;51.482;5.702;2023-05-13T00:27:03;13.00;99.90
76787;DHT22;65739;51.482;5.702;2023-05-13T00:29:28;13.00;99.90
76787;DHT22;65739;51.482;5.702;2023-05-13T00:31:54;13.00;99.90
76787;DHT22;65739;51.482;5.702;2023-05-13T00:34:19;13.00;99.90
76787;DHT22;65739;51.482;5.702;2023-05-13T00:36:47;13.00;99.90
76787;DHT22;65739;51.482;5.702;2023-05-13T00:39:13;12.90;99.90
76787;DHT22;65739;51.482;5.702;2023-05-13T00:41:38;12.90;99.90
76787;DHT22;65739;51.482;5.702;2023-05-13T00:44:04;12.80;99.90
76787;DHT22;65739;51.482;5.702;2023-05-13T00:46:30;12.80;99.90
76787;DHT22;65739;51.482;5.702;2023-05-13T00:48:58;12.70;99.90
76787;DHT22;65739;51.482;5.702;2023-05-13T00:51:23;12.60;99.90
76787;DHT22;65739;51.482;5.702;2023-05-13T00:53:52;12.50;99.90
76787;DHT22;65739;51.482;5.702;2023-05-13T00:56:20;12.40;99.90
76787;DHT22;65739;51.482;5.702;2023-05-13T00:58:47;12.40;99.90
76787;DHT22;65739;51.482;5.702;2023-05-13T01:01:29;12.30;99.90
76787;DHT22;65739;51.482;5.702;2023-05-13T01:04:25;12.30;99.90
76787;DHT22;65739;51.482;5.702;2023-05-13T01:09:32;12.30;99.90
76787;DHT22;65739;51.482;5.702;2023-05-13T01:12:06;12.20;99.90
76787;DHT22;65739;51.482;5.702;2023-05-13T01:14:46;12.10;99.90
76787;DHT22;65739;51.482;5.702;2023-05-13T01:17:21;12.00;99.90
76787;DHT22;65739;51.482;5.702;2023-05-13T01:19:53;12.00;99.90
76787;DHT22;65739;51.482;5.702;2023-05-13T01:22:19;11.90;99.90
76787;DHT22;65739;51.482;5.702;2023-05-13T01:24:47;11.80;99.90
76787;DHT22;65739;51.482;5.702;2023-05-13T01:27:14;11.60;99.90
76787;DHT22;65739;51.482;5.702;2023-05-13T01:29:46;11.60;99.90
76787;DHT22;65739;51.482;5.702;2023-05-13T01:32:12;11.50;99.90
76787;DHT22;65739;51.482;5.702;2023-05-13T01:34:39;11.50;99.90
76787;DHT22;65739;51.482;5.702;2023-05-13T01:37:05;11.40;99.90
76787;DHT22;65739;51.482;5.702;2023-05-13T01:39:31;11.40;99.90
76787;DHT22;65739;51.482;5.702;2023-05-13T01:41:57;11.30;99.90
76787;DHT22;65739;51.482;5.702;2023-05-13T01:44:23;11.30;99.90
76787;DHT22;65739;51.482;5.702;2023-05-13T01:46:48;11.10;99.90
76787;DHT22;65739;51.482;5.702;2023-05-13T01:49:15;11.10;99.90
76787;DHT22;65739;51.482;5.702;2023-05-13T01:51:41;11.00;99.90
76787;DHT22;65739;51.482;5.702;2023-05-13T01:54:06;10.90;99.90
76787;DHT22;65739;51.482;5.702;2023-05-13T01:56:32;10.90;99.90
76787;DHT22;65739;51.482;5.702;2023-05-13T01:58:57;10.80;99.90
76787;DHT22;65739;51.482;5.702;2023-05-13T02:01:23;10.70;99.90
76787;DHT22;65739;51.482;5.702;2023-05-13T02:03:48;10.70;99.90
76787;DHT22;65739;51.482;5.702;2023-05-13T02:06:16;10.60;99.90
76787;DHT22;65739;51.482;5.702;2023-05-13T02:08:44;10.50;99.90
76787;DHT22;65739;51.482;5.702;2023-05-13T02:11:09;10.50;99.90
76787;DHT22;65739;51.482;5.702;2023-05-13T02:13:35;10.40;99.90
76787;DHT22;65739;51.482;5.702;2023-05-13T02:16:01;10.40;99.90
76787;DHT22;65739;51.482;5.702;2023-05-13T02:18:27;10.30;99.90
76787;DHT22;65739;51.482;5.702;2023-05-13T02:20:55;10.30;99.90
76787;DHT22;65739;51.482;5.702;2023-05-13T02:23:21;10.30;99.90
76787;DHT22;65739;51.482;5.702;2023-05-13T02:25:47;10.20;99.90
76787;DHT22;65739;51.482;5.702;2023-05-13T02:28:20;10.20;99.90
76787;DHT22;65739;51.482;5.702;2023-05-13T02:30:46;10.20;99.90
76787;DHT22;65739;51.482;5.702;2023-05-13T02:33:13;10.10;99.90
76787;DHT22;65739;51.482;5.702;2023-05-13T02:35:41;10.00;99.90
76787;DHT22;65739;51.482;5.702;2023-05-13T02:38:12;10.10;99.90
76787;DHT22;65739;51.482;5.702;2023-05-13T02:40:42;10.10;99.90
76787;DHT22;65739;51.482;5.702;2023-05-13T02:43:15;10.00;99.90
76787;DHT22;65739;51.482;5.702;2023-05-13T02:45:44;9.90;99.90
76787;DHT22;65739;51.482;5.702;2023-05-13T02:48:12;9.80;99.90
76787;DHT22;65739;51.482;5.702;2023-05-13T02:50:38;9.70;99.90
76787;DHT22;65739;51.482;5.702;2023-05-13T02:53:05;9.70;99.90
76787;DHT22;65739;51.482;5.702;2023-05-13T02:55:31;9.70;99.90
76787;DHT22;65739;51.482;5.702;2023-05-13T02:57:57;9.60;99.90
76787;DHT22;65739;51.482;5.702;2023-05-13T03:00:22;9.50;99.90
76787;DHT22;65739;51.482;5.702;2023-05-13T03:02:48;9.60;99.90
76787;DHT22;65739;51.482;5.702;2023-05-13T03:05:13;9.50;99.90
76787;DHT22;65739;51.482;5.702;2023-05-13T03:07:39;9.50;99.90
76787;DHT22;65739;51.482;5.702;2023-05-13T03:10:05;9.40;99.90
76787;DHT22;65739;51.482;5.702;2023-05-13T03:12:31;9.40;99.90
76787;DHT22;65739;51.482;5.702;2023-05-13T03:14:56;9.40;99.90
76787;DHT22;65739;51.482;5.702;2023-05-13T03:17:22;9.30;99.90
76787;DHT22;65739;51.482;5.702;2023-05-13T03:19:50;9.30;99.90
76787;DHT22;65739;51.482;5.702;2023-05-13T03:22:16;9.20;99.90
76787;DHT22;65739;51.482;5.702;2023-05-13T03:24:41;9.20;99.90
76787;DHT22;65739;51.482;5.702;2023-05-13T03:27:09;9.20;99.90
76787;DHT22;65739;51.482;5.702;2023-05-13T03:29:35;9.20;99.90
76787;DHT22;65739;51.482;5.702;2023-05-13T03:32:02;9.20;99.90
76787;DHT22;65739;51.482;5.702;2023-05-13T03:34:28;9.20;99.90
76787;DHT22;65739;51.482;5.702;2023-05-13T03:36:54;9.20;99.90
76787;DHT22;65739;51.482;5.702;2023-05-13T03:39:19;9.10;99.90
76787;DHT22;65739;51.482;5.702;2023-05-13T03:41:45;9.20;99.90
76787;DHT22;65739;51.482;5.702;2023-05-13T03:44:10;9.10;99.90
76787;DHT22;65739;51.482;5.702;2023-05-13T03:46:36;9.10;99.90
76787;DHT22;65739;51.482;5.702;2023-05-13T03:49:02;9.10;99.90
76787;DHT22;65739;51.482;5.702;2023-05-13T03:51:30;9.10;99.90
76787;DHT22;65739;51.482;5.702;2023-05-13T03:53:57;9.10;99.90
76787;DHT22;65739;51.482;5.702;2023-05-13T03:56:27;9.10;99.90
76787;DHT22;65739;51.482;5.702;2023-05-13T03:58:53;9.10;99.90
76787;DHT22;65739;51.482;5.702;2023-05-13T04:01:21;9.00;99.90
76787;DHT22;65739;51.482;5.702;2023-05-13T04:03:46;9.00;99.90
76787;DHT22;65739;51.482;5.702;2023-05-13T04:06:14;9.00;99.90
76787;DHT22;65739;51.482;5.702;2023-05-13T04:08:40;9.00;99.90
76787;DHT22;65739;51.482;5.702;2023-05-13T04:11:10;9.00;99.90
76787;DHT22;65739;51.482;5.702;2023-05-13T04:13:38;9.00;99.90
76787;DHT22;65739;51.482;5.702;2023-05-13T04:16:11;9.00;99.90
76787;DHT22;65739;51.482;5.702;2023-05-13T04:18:36;9.00;99.90
76787;DHT22;65739;51.482;5.702;2023-05-13T04:21:08;9.00;99.90
76787;DHT22;65739;51.482;5.702;2023-05-13T04:23:34;9.00;99.90
76787;DHT22;65739;51.482;5.702;2023-05-13T04:26:00;9.00;99.90
76787;DHT22;65739;51.482;5.702;2023-05-13T04:28:26;9.00;99.90
76787;DHT22;65739;51.482;5.702;2023-05-13T04:30:51;9.10;99.90
76787;DHT22;65739;51.482;5.702;2023-05-13T04:33:17;9.10;99.90
76787;DHT22;65739;51.482;5.702;2023-05-13T04:35:42;9.10;99.90
76787;DHT22;65739;51.482;5.702;2023-05-13T04:38:08;9.20;99.90
76787;DHT22;65739;51.482;5.702;2023-05-13T04:40:34;9.20;99.90
76787;DHT22;65739;51.482;5.702;2023-05-13T04:43:01;9.20;99.90
76787;DHT22;65739;51.482;5.702;2023-05-13T04:45:27;9.30;99.90
76787;DHT22;65739;51.482;5.702;2023-05-13T04:47:55;9.30;99.90
76787;DHT22;65739;51.482;5.702;2023-05-13T04:50:22;9.40;99.90
76787;DHT22;65739;51.482;5.702;2023-05-13T04:52:48;9.40;99.90
76787;DHT22;65739;51.482;5.702;2023-05-13T04:55:14;9.40;99.90
76787;DHT22;65739;51.482;5.702;2023-05-13T04:57:39;9.50;99.90
76787;DHT22;65739;51.482;5.702;2023-05-13T05:00:05;9.60;99.90
76787;DHT22;65739;51.482;5.702;2023-05-13T05:02:33;9.60;99.90
76787;DHT22;65739;51.482;5.702;2023-05-13T05:04:58;9.80;99.90
76787;DHT22;65739;51.482;5.702;2023-05-13T05:07:33;9.80;99.90
76787;DHT22;65739;51.482;5.702;2023-05-13T05:09:59;9.90;99.90
76787;DHT22;65739;51.482;5.702;2023-05-13T05:12:27;10.00;99.90
76787;DHT22;65739;51.482;5.702;2023-05-13T05:14:54;10.10;99.90
76787;DHT22;65739;51.482;5.702;2023-05-13T05:17:22;10.20;99.90
76787;DHT22;65739;51.482;5.702;2023-05-13T05:19:58;10.40;99.90
76787;DHT22;65739;51.482;5.702;2023-05-13T05:22:32;10.50;99.90
76787;DHT22;65739;51.482;5.702;2023-05-13T05:25:02;10.60;99.90
76787;DHT22;65739;51.482;5.702;2023-05-13T05:27:28;10.70;99.90
76787;DHT22;65739;51.482;5.702;2023-05-13T05:29:53;10.80;99.90
76787;DHT22;65739;51.482;5.702;2023-05-13T05:32:19;11.00;99.90
76787;DHT22;65739;51.482;5.702;2023-05-13T05:34:45;11.10;99.90
76787;DHT22;65739;51.482;5.702;2023-05-13T05:37:10;11.30;99.90
76787;DHT22;65739;51.482;5.702;2023-05-13T05:39:36;11.40;99.90
76787;DHT22;65739;51.482;5.702;2023-05-13T05:42:08;11.60;99.90
76787;DHT22;65739;51.482;5.702;2023-05-13T05:44:34;11.70;99.90
76787;DHT22;65739;51.482;5.702;2023-05-13T05:47:00;11.80;99.90
76787;DHT22;65739;51.482;5.702;2023-05-13T05:49:26;12.00;99.90
76787;DHT22;65739;51.482;5.702;2023-05-13T05:51:54;12.00;99.90
76787;DHT22;65739;51.482;5.702;2023-05-13T05:54:21;12.30;99.90
76787;DHT22;65739;51.482;5.702;2023-05-13T05:56:47;12.50;99.90
76787;DHT22;65739;51.482;5.702;2023-05-13T05:59:12;12.80;99.90
76787;DHT22;65739;51.482;5.702;2023-05-13T06:01:38;12.90;99.90
76787;DHT22;65739;51.482;5.702;2023-05-13T06:04:03;13.00;99.90
76787;DHT22;65739;51.482;5.702;2023-05-13T06:06:31;13.20;99.90
76787;DHT22;65739;51.482;5.702;2023-05-13T06:08:57;13.40;99.90
76787;DHT22;65739;51.482;5.702;2023-05-13T06:11:23;13.70;99.90
76787;DHT22;65739;51.482;5.702;2023-05-13T06:13:48;13.90;99.90
76787;DHT22;65739;51.482;5.702;2023-05-13T06:16:21;14.10;99.90
76787;DHT22;65739;51.482;5.702;2023-05-13T06:18:47;14.30;99.90
76787;DHT22;65739;51.482;5.702;2023-05-13T06:21:15;14.40;99.90
76787;DHT22;65739;51.482;5.702;2023-05-13T06:23:40;14.60;99.90
76787;DHT22;65739;51.482;5.702;2023-05-13T06:26:06;14.70;99.90
76787;DHT22;65739;51.482;5.702;2023-05-13T06:28:32;14.90;99.90
76787;DHT22;65739;51.482;5.702;2023-05-13T06:30:57;14.90;99.90
76787;DHT22;65739;51.482;5.702;2023-05-13T06:33:23;14.80;99.90
76787;DHT22;65739;51.482;5.702;2023-05-13T06:35:48;14.80;99.90
76787;DHT22;65739;51.482;5.702;2023-05-13T06:38:17;14.70;99.90
76787;DHT22;65739;51.482;5.702;2023-05-13T06:40:50;14.70;99.90
76787;DHT22;65739;51.482;5.702;2023-05-13T06:46:34;14.70;99.90
76787;DHT22;65739;51.482;5.702;2023-05-13T06:52:15;14.70;99.90
76787;DHT22;65739;51.482;5.702;2023-05-13T06:55:01;14.70;99.90
76787;DHT22;65739;51.482;5.702;2023-05-13T06:57:34;14.70;99.90
76787;DHT22;65739;51.482;5.702;2023-05-13T07:00:03;14.80;99.90
76787;DHT22;65739;51.482;5.702;2023-05-13T07:02:31;14.80;99.90
76787;DHT22;65739;51.482;5.702;2023-05-13T07:04:58;14.80;99.90
76787;DHT22;65739;51.482;5.702;2023-05-13T07:07:31;14.80;99.90
76787;DHT22;65739;51.482;5.702;2023-05-13T07:10:17;14.70;99.90
76787;DHT22;65739;51.482;5.702;2023-05-13T07:12:48;14.70;99.90
76787;DHT22;65739;51.482;5.702;2023-05-13T07:15:36;14.80;99.90
76787;DHT22;65739;51.482;5.702;2023-05-13T07:18:17;14.80;99.90
76787;DHT22;65739;51.482;5.702;2023-05-13T07:21:02;14.90;99.90
76787;DHT22;65739;51.482;5.702;2023-05-13T07:23:28;14.90;99.90
76787;DHT22;65739;51.482;5.702;2023-05-13T07:26:01;14.90;99.90
76787;DHT22;65739;51.482;5.702;2023-05-13T07:28:28;14.90;99.90
76787;DHT22;65739;51.482;5.702;2023-05-13T07:30:57;15.00;99.90
76787;DHT22;65739;51.482;5.702;2023-05-13T07:33:23;15.00;99.90
76787;DHT22;65739;51.482;5.702;2023-05-13T07:35:48;15.10;99.90
76787;DHT22;65739;51.482;5.702;2023-05-13T07:38:14;15.30;99.90
76787;DHT22;65739;51.482;5.702;2023-05-13T07:40:40;15.40;99.90
76787;DHT22;65739;51.482;5.702;2023-05-13T07:43:05;15.40;99.90
76787;DHT22;65739;51.482;5.702;2023-05-13T07:45:34;15.60;99.90
76787;DHT22;65739;51.482;5.702;2023-05-13T07:48:00;15.70;99.90
76787;DHT22;65739;51.482;5.702;2023-05-13T07:50:25;15.80;99.90
76787;DHT22;65739;51.482;5.702;2023-05-13T07:52:51;15.90;99.90
76787;DHT22;65739;51.482;5.702;2023-05-13T07:55:17;16.00;99.90
76787;DHT22;65739;51.482;5.702;2023-05-13T07:57:42;16.10;99.90
76787;DHT22;65739;51.482;5.702;2023-05-13T08:00:08;16.30;99.90
76787;DHT22;65739;51.482;5.702;2023-05-13T08:02:37;16.50;99.90
76787;DHT22;65739;51.482;5.702;2023-05-13T08:05:03;16.70;99.90
76787;DHT22;65739;51.482;5.702;2023-05-13T08:07:29;16.80;99.90
76787;DHT22;65739;51.482;5.702;2023-05-13T08:09:55;17.10;99.90
76787;DHT22;65739;51.482;5.702;2023-05-13T08:12:22;17.20;99.90
76787;DHT22;65739;51.482;5.702;2023-05-13T08:14:48;17.30;99.90
76787;DHT22;65739;51.482;5.702;2023-05-13T08:17:14;17.60;99.90
76787;DHT22;65739;51.482;5.702;2023-05-13T08:19:41;17.80;99.90
76787;DHT22;65739;51.482;5.702;2023-05-13T08:22:06;17.80;99.90
76787;DHT22;65739;51.482;5.702;2023-05-13T08:24:34;18.10;99.90
76787;DHT22;65739;51.482;5.702;2023-05-13T08:27:00;18.10;99.90
76787;DHT22;65739;51.482;5.702;2023-05-13T08:29:28;18.30;99.90
76787;DHT22;65739;51.482;5.702;2023-05-13T08:31:54;18.50;99.90
76787;DHT22;65739;51.482;5.702;2023-05-13T08:34:19;18.80;99.90
76787;DHT22;65739;51.482;5.702;2023-05-13T08:36:45;19.20;99.90
76787;DHT22;65739;51.482;5.702;2023-05-13T08:39:13;19.50;99.90
76787;DHT22;65739;51.482;5.702;2023-05-13T08:41:42;19.50;99.90
76787;DHT22;65739;51.482;5.702;2023-05-13T08:44:11;19.80;99.90
76787;DHT22;65739;51.482;5.702;2023-05-13T08:46:39;20.30;99.90
76787;DHT22;65739;51.482;5.702;2023-05-13T08:49:07;20.20;99.90
76787;DHT22;65739;51.482;5.702;2023-05-13T08:51:36;20.50;99.90
76787;DHT22;65739;51.482;5.702;2023-05-13T08:54:02;20.80;99.90
76787;DHT22;65739;51.482;5.702;2023-05-13T08:56:29;20.70;99.90
76787;DHT22;65739;51.482;5.702;2023-05-13T08:58:55;20.90;99.90
76787;DHT22;65739;51.482;5.702;2023-05-13T09:01:23;20.70;99.90
76787;DHT22;65739;51.482;5.702;2023-05-13T09:03:54;20.90;99.90
76787;DHT22;65739;51.482;5.702;2023-05-13T09:06:21;21.00;99.90
76787;DHT22;65739;51.482;5.702;2023-05-13T09:08:49;21.10;99.90
76787;DHT22;65739;51.482;5.702;2023-05-13T09:11:17;20.90;99.90
76787;DHT22;65739;51.482;5.702;2023-05-13T09:14:01;21.20;99.90
76787;DHT22;65739;51.482;5.702;2023-05-13T09:16:27;21.40;99.90
76787;DHT22;65739;51.482;5.702;2023-05-13T09:19:11;21.40;99.90
76787;DHT22;65739;51.482;5.702;2023-05-13T09:21:37;21.50;99.90
76787;DHT22;65739;51.482;5.702;2023-05-13T09:24:13;21.60;99.90
76787;DHT22;65739;51.482;5.702;2023-05-13T09:26:48;21.60;99.90
76787;DHT22;65739;51.482;5.702;2023-05-13T09:31:51;21.80;99.90
76787;DHT22;65739;51.482;5.702;2023-05-13T09:34:30;21.90;99.90
76787;DHT22;65739;51.482;5.702;2023-05-13T09:37:01;21.90;99.90
76787;DHT22;65739;51.482;5.702;2023-05-13T09:39:28;22.00;99.90
76787;DHT22;65739;51.482;5.702;2023-05-13T09:41:54;21.90;99.90
76787;DHT22;65739;51.482;5.702;2023-05-13T09:44:21;22.10;99.90
76787;DHT22;65739;51.482;5.702;2023-05-13T09:46:46;22.10;99.90
76787;DHT22;65739;51.482;5.702;2023-05-13T09:49:14;22.20;99.90
76787;DHT22;65739;51.482;5.702;2023-05-13T09:51:42;22.40;99.90
76787;DHT22;65739;51.482;5.702;2023-05-13T09:54:08;22.60;99.90
76787;DHT22;65739;51.482;5.702;2023-05-13T09:56:34;23.00;99.90
76787;DHT22;65739;51.482;5.702;2023-05-13T09:59:01;23.20;99.90
76787;DHT22;65739;51.482;5.702;2023-05-13T10:01:29;23.30;99.90
76787;DHT22;65739;51.482;5.702;2023-05-13T10:03:55;23.40;99.90
76787;DHT22;65739;51.482;5.702;2023-05-13T10:06:26;23.40;99.90
76787;DHT22;65739;51.482;5.702;2023-05-13T10:08:56;23.60;99.90
76787;DHT22;65739;51.482;5.702;2023-05-13T10:11:26;23.70;99.90
76787;DHT22;65739;51.482;5.702;2023-05-13T10:14:05;23.70;99.90
76787;DHT22;65739;51.482;5.702;2023-05-13T10:16:40;23.80;99.90
76787;DHT22;65739;51.482;5.702;2023-05-13T10:19:17;23.70;99.90
76787;DHT22;65739;51.482;5.702;2023-05-13T10:22:03;23.80;99.90
76787;DHT22;65739;51.482;5.702;2023-05-13T10:24:31;23.90;99.90
76787;DHT22;65739;51.482;5.702;2023-05-13T10:26:57;23.90;99.90
76787;DHT22;65739;51.482;5.702;2023-05-13T10:29:27;23.90;99.90
76787;DHT22;65739;51.482;5.702;2023-05-13T10:31:54;24.00;99.90
76787;DHT22;65739;51.482;5.702;2023-05-13T10:34:21;24.50;99.90
76787;DHT22;65739;51.482;5.702;2023-05-13T10:42:39;24.90;99.90
76787;DHT22;65739;51.482;5.702;2023-05-13T10:45:08;24.90;99.90
76787;DHT22;65739;51.482;5.702;2023-05-13T10:47:35;24.70;99.90
76787;DHT22;65739;51.482;5.702;2023-05-13T10:50:23;24.50;99.90
76787;DHT22;65739;51.482;5.702;2023-05-13T10:52:49;24.90;99.90
76787;DHT22;65739;51.482;5.702;2023-05-13T10:55:19;24.80;99.90
76787;DHT22;65739;51.482;5.702;2023-05-13T10:58:10;25.00;99.90
76787;DHT22;65739;51.482;5.702;2023-05-13T11:00:37;24.80;99.90
76787;DHT22;65739;51.482;5.702;2023-05-13T11:03:14;24.90;99.90
76787;DHT22;65739;51.482;5.702;2023-05-13T11:05:43;24.90;99.90
76787;DHT22;65739;51.482;5.702;2023-05-13T11:08:09;25.10;99.90
76787;DHT22;65739;51.482;5.702;2023-05-13T11:10:36;25.20;99.90
76787;DHT22;65739;51.482;5.702;2023-05-13T11:15:59;25.30;99.90
76787;DHT22;65739;51.482;5.702;2023-05-13T11:18:33;25.40;99.90
76787;DHT22;65739;51.482;5.702;2023-05-13T11:21:06;25.30;99.90
76787;DHT22;65739;51.482;5.702;2023-05-13T11:23:48;25.10;99.90
76787;DHT22;65739;51.482;5.702;2023-05-13T11:26:14;25.00;99.90
76787;DHT22;65739;51.482;5.702;2023-05-13T11:29:04;25.50;99.90
76787;DHT22;65739;51.482;5.702;2023-05-13T11:31:48;25.40;99.90
76787;DHT22;65739;51.482;5.702;2023-05-13T11:34:16;25.50;99.90
76787;DHT22;65739;51.482;5.702;2023-05-13T11:36:55;25.20;99.90
76787;DHT22;65739;51.482;5.702;2023-05-13T11:39:22;25.10;99.90
76787;DHT22;65739;51.482;5.702;2023-05-13T11:41:51;25.40;99.90
76787;DHT22;65739;51.482;5.702;2023-05-13T11:44:21;25.70;99.90
76787;DHT22;65739;51.482;5.702;2023-05-13T11:46:55;25.90;99.90
76787;DHT22;65739;51.482;5.702;2023-05-13T11:49:33;24.90;99.90
76787;DHT22;65739;51.482;5.702;2023-05-13T11:52:00;25.00;99.90
76787;DHT22;65739;51.482;5.702;2023-05-13T11:57:23;24.60;99.90
76787;DHT22;65739;51.482;5.702;2023-05-13T11:59:58;24.00;99.90
76787;DHT22;65739;51.482;5.702;2023-05-13T12:02:35;23.60;99.90
76787;DHT22;65739;51.482;5.702;2023-05-13T12:05:06;23.50;99.90
76787;DHT22;65739;51.482;5.702;2023-05-13T12:07:32;23.70;99.90
76787;DHT22;65739;51.482;5.702;2023-05-13T12:09:59;23.80;99.90
76787;DHT22;65739;51.482;5.702;2023-05-13T12:12:26;23.40;99.90
76787;DHT22;65739;51.482;5.702;2023-05-13T12:14:55;23.20;99.90
76787;DHT22;65739;51.482;5.702;2023-05-13T12:17:21;23.10;99.90
76787;DHT22;65739;51.482;5.702;2023-05-13T12:20:06;23.00;99.90
76787;DHT22;65739;51.482;5.702;2023-05-13T12:22:54;23.60;99.90
76787;DHT22;65739;51.482;5.702;2023-05-13T12:30:39;24.50;99.90
76787;DHT22;65739;51.482;5.702;2023-05-13T12:33:11;24.90;99.90
76787;DHT22;65739;51.482;5.702;2023-05-13T12:35:37;25.20;99.90
76787;DHT22;65739;51.482;5.702;2023-05-13T12:38:04;25.10;99.90
76787;DHT22;65739;51.482;5.702;2023-05-13T12:40:31;24.90;99.90
76787;DHT22;65739;51.482;5.702;2023-05-13T12:43:00;25.40;99.90
76787;DHT22;65739;51.482;5.702;2023-05-13T12:45:30;25.50;99.90
76787;DHT22;65739;51.482;5.702;2023-05-13T12:47:59;25.50;99.90
76787;DHT22;65739;51.482;5.702;2023-05-13T12:50:29;25.00;99.90
76787;DHT22;65739;51.482;5.702;2023-05-13T12:52:57;25.00;99.90
76787;DHT22;65739;51.482;5.702;2023-05-13T12:55:24;25.10;99.90
76787;DHT22;65739;51.482;5.702;2023-05-13T12:58:02;25.50;99.90
76787;DHT22;65739;51.482;5.702;2023-05-13T13:00:29;25.80;99.90
76787;DHT22;65739;51.482;5.702;2023-05-13T13:02:57;26.00;99.90
76787;DHT22;65739;51.482;5.702;2023-05-13T13:05:23;26.10;99.90
76787;DHT22;65739;51.482;5.702;2023-05-13T13:07:57;26.30;99.90
76787;DHT22;65739;51.482;5.702;2023-05-13T13:10:25;26.00;99.90
76787;DHT22;65739;51.482;5.702;2023-05-13T13:12:51;26.00;99.90
76787;DHT22;65739;51.482;5.702;2023-05-13T13:15:16;26.30;99.90
76787;DHT22;65739;51.482;5.702;2023-05-13T13:17:42;25.80;99.70
76787;DHT22;65739;51.482;5.702;2023-05-13T13:20:07;24.90;99.90
76787;DHT22;65739;51.482;5.702;2023-05-13T13:22:36;24.20;99.90
76787;DHT22;65739;51.482;5.702;2023-05-13T13:25:05;24.20;99.90
76787;DHT22;65739;51.482;5.702;2023-05-13T13:27:32;25.00;99.90
76787;DHT22;65739;51.482;5.702;2023-05-13T13:29:57;25.60;99.90
76787;DHT22;65739;51.482;5.702;2023-05-13T13:32:30;25.80;99.90
76787;DHT22;65739;51.482;5.702;2023-05-13T13:34:59;25.80;99.90
76787;DHT22;65739;51.482;5.702;2023-05-13T13:37:29;25.10;99.90
76787;DHT22;65739;51.482;5.702;2023-05-13T13:39:55;24.60;99.90
76787;DHT22;65739;51.482;5.702;2023-05-13T13:42:20;24.40;99.90
76787;DHT22;65739;51.482;5.702;2023-05-13T13:44:47;25.00;99.90
76787;DHT22;65739;51.482;5.702;2023-05-13T13:47:14;25.40;99.10
76787;DHT22;65739;51.482;5.702;2023-05-13T13:49:39;24.80;99.90
76787;DHT22;65739;51.482;5.702;2023-05-13T13:52:07;24.30;99.90
76787;DHT22;65739;51.482;5.702;2023-05-13T13:54:33;24.20;99.90
76787;DHT22;65739;51.482;5.702;2023-05-13T13:56:59;24.90;99.60
76787;DHT22;65739;51.482;5.702;2023-05-13T13:59:24;25.60;99.90
76787;DHT22;65739;51.482;5.702;2023-05-13T14:01:50;26.40;99.90
76787;DHT22;65739;51.482;5.702;2023-05-13T14:04:18;26.30;99.90
76787;DHT22;65739;51.482;5.702;2023-05-13T14:06:48;26.30;99.90
76787;DHT22;65739;51.482;5.702;2023-05-13T14:09:14;25.90;99.10
76787;DHT22;65739;51.482;5.702;2023-05-13T14:11:40;25.70;98.00
76787;DHT22;65739;51.482;5.702;2023-05-13T14:14:06;25.80;98.40
76787;DHT22;65739;51.482;5.702;2023-05-13T14:16:32;26.00;98.60
76787;DHT22;65739;51.482;5.702;2023-05-13T14:18:58;25.70;98.60
76787;DHT22;65739;51.482;5.702;2023-05-13T14:21:26;25.60;99.20
76787;DHT22;65739;51.482;5.702;2023-05-13T14:24:01;25.90;97.70
76787;DHT22;65739;51.482;5.702;2023-05-13T14:26:45;26.00;99.00
76787;DHT22;65739;51.482;5.702;2023-05-13T14:29:31;26.30;99.90
76787;DHT22;65739;51.482;5.702;2023-05-13T14:32:02;26.30;97.80
76787;DHT22;65739;51.482;5.702;2023-05-13T14:34:28;25.60;97.80
76787;DHT22;65739;51.482;5.702;2023-05-13T14:36:54;24.90;98.00
76787;DHT22;65739;51.482;5.702;2023-05-13T14:39:19;24.80;99.90
76787;DHT22;65739;51.482;5.702;2023-05-13T14:42:05;25.30;97.90
76787;DHT22;65739;51.482;5.702;2023-05-13T14:44:40;25.70;99.00
76787;DHT22;65739;51.482;5.702;2023-05-13T14:47:08;26.00;98.10
76787;DHT22;65739;51.482;5.702;2023-05-13T14:49:34;26.00;97.40
76787;DHT22;65739;51.482;5.702;2023-05-13T14:52:14;26.00;97.40
76787;DHT22;65739;51.482;5.702;2023-05-13T14:55:14;26.10;96.60
76787;DHT22;65739;51.482;5.702;2023-05-13T15:01:27;26.40;96.00
76787;DHT22;65739;51.482;5.702;2023-05-13T15:04:38;26.30;96.20
76787;DHT22;65739;51.482;5.702;2023-05-13T15:07:35;26.70;96.90
76787;DHT22;65739;51.482;5.702;2023-05-13T15:10:39;26.70;96.10
76787;DHT22;65739;51.482;5.702;2023-05-13T15:16:41;27.60;96.70
76787;DHT22;65739;51.482;5.702;2023-05-13T15:19:38;27.40;96.20
76787;DHT22;65739;51.482;5.702;2023-05-13T15:22:31;27.20;96.00
76787;DHT22;65739;51.482;5.702;2023-05-13T15:28:40;27.20;96.70
76787;DHT22;65739;51.482;5.702;2023-05-13T15:31:15;26.40;95.00
76787;DHT22;65739;51.482;5.702;2023-05-13T15:33:59;26.70;96.10
76787;DHT22;65739;51.482;5.702;2023-05-13T15:36:29;27.20;94.70
76787;DHT22;65739;51.482;5.702;2023-05-13T15:38:59;27.10;95.10
76787;DHT22;65739;51.482;5.702;2023-05-13T15:41:52;27.00;95.00
76787;DHT22;65739;51.482;5.702;2023-05-13T15:44:28;27.40;95.40
76787;DHT22;65739;51.482;5.702;2023-05-13T15:46:54;27.10;94.70
76787;DHT22;65739;51.482;5.702;2023-05-13T15:49:26;27.40;94.10
76787;DHT22;65739;51.482;5.702;2023-05-13T15:51:52;27.40;94.00
76787;DHT22;65739;51.482;5.702;2023-05-13T15:54:30;28.10;94.70
76787;DHT22;65739;51.482;5.702;2023-05-13T15:57:39;28.10;93.90
76787;DHT22;65739;51.482;5.702;2023-05-13T16:00:29;28.30;94.10
76787;DHT22;65739;51.482;5.702;2023-05-13T16:03:15;28.50;93.10
76787;DHT22;65739;51.482;5.702;2023-05-13T16:05:43;28.30;92.50
76787;DHT22;65739;51.482;5.702;2023-05-13T16:08:13;28.20;92.80
76787;DHT22;65739;51.482;5.702;2023-05-13T16:11:22;28.20;93.50
76787;DHT22;65739;51.482;5.702;2023-05-13T16:14:10;28.20;93.90
76787;DHT22;65739;51.482;5.702;2023-05-13T16:16:38;28.10;93.30
76787;DHT22;65739;51.482;5.702;2023-05-13T16:19:03;28.00;93.60
76787;DHT22;65739;51.482;5.702;2023-05-13T16:21:38;28.10;94.30
76787;DHT22;65739;51.482;5.702;2023-05-13T16:24:06;27.80;93.70
76787;DHT22;65739;51.482;5.702;2023-05-13T16:26:53;27.70;93.70